createdAt,value
2023-02-17T00:01:33.877Z,83.71
2023-02-17T00:04:02.183Z,83.65
2023-02-17T00:06:32.309Z,83.57
2023-02-17T00:09:00.582Z,83.51
2023-02-17T00:11:29.195Z,83.49
2023-02-17T00:13:57.713Z,83.42
2023-02-17T00:16:27.416Z,83.35
2023-02-17T00:18:58.330Z,83.31
2023-02-17T00:21:29.460Z,83.25
2023-02-17T00:23:59.329Z,83.24
2023-02-17T00:26:27.524Z,83.24
2023-02-17T00:28:55.477Z,83.27
2023-02-17T00:31:24.083Z,83.26
2023-02-17T00:33:56.465Z,83.24
2023-02-17T00:36:26.765Z,83.23
2023-02-17T00:38:57.256Z,83.23
2023-02-17T00:41:28.592Z,83.24
2023-02-17T00:43:59.518Z,83.22
2023-02-17T00:46:27.976Z,83.23
2023-02-17T00:48:56.421Z,83.25
2023-02-17T00:51:25.306Z,83.27
2023-02-17T00:53:53.667Z,83.29
2023-02-17T00:56:22.033Z,83.26
2023-02-17T00:58:50.297Z,83.25
2023-02-17T01:01:18.537Z,83.23
2023-02-17T01:03:47.007Z,83.20
2023-02-17T01:06:24.651Z,83.18
2023-02-17T01:08:52.879Z,83.18
2023-02-17T01:11:33.124Z,83.15
2023-02-17T01:14:03.604Z,83.11
2023-02-17T01:16:37.683Z,83.01
2023-02-17T01:19:09.365Z,83.02
2023-02-17T01:21:39.022Z,82.98
2023-02-17T01:24:08.591Z,82.94
2023-02-17T01:26:37.429Z,82.90
2023-02-17T01:29:07.021Z,82.92
2023-02-17T01:31:35.122Z,82.95
2023-02-17T01:34:06.416Z,82.97
2023-02-17T01:36:34.418Z,82.92
2023-02-17T01:39:02.516Z,82.83
2023-02-17T01:41:30.728Z,82.68
2023-02-17T01:44:12.137Z,82.66
2023-02-17T01:46:42.640Z,82.65
2023-02-17T01:49:24.507Z,82.61
2023-02-17T01:52:03.778Z,82.66
2023-02-17T01:54:41.929Z,82.56
2023-02-17T01:57:13.127Z,82.47
2023-02-17T01:59:42.142Z,82.49
2023-02-17T02:02:10.948Z,82.52
2023-02-17T02:04:42.255Z,82.51
2023-02-17T02:07:21.273Z,82.44
2023-02-17T02:09:56.759Z,82.45
2023-02-17T02:12:27.147Z,82.44
2023-02-17T02:15:00.774Z,82.36
2023-02-17T02:18:02.607Z,82.34
2023-02-17T02:20:46.289Z,82.33
2023-02-17T02:23:42.302Z,82.27
2023-02-17T02:26:41.452Z,82.26
2023-02-17T02:29:27.308Z,82.30
2023-02-17T02:32:33.185Z,82.30
2023-02-17T02:35:28.616Z,82.28
2023-02-17T02:38:07.219Z,82.25
2023-02-17T02:40:40.886Z,82.28
2023-02-17T02:43:09.913Z,82.26
2023-02-17T02:45:38.211Z,82.26
2023-02-17T02:48:06.536Z,82.21
2023-02-17T02:50:47.914Z,82.23
2023-02-17T02:53:41.006Z,82.19
2023-02-17T02:56:29.081Z,82.19
2023-02-17T02:59:13.682Z,82.13
2023-02-17T03:01:45.813Z,82.09
2023-02-17T03:04:26.692Z,81.94
2023-02-17T03:07:04.731Z,81.90
2023-02-17T03:09:33.543Z,81.83
2023-02-17T03:12:01.493Z,81.75
2023-02-17T03:14:37.882Z,81.74
2023-02-17T03:17:05.984Z,81.74
2023-02-17T03:19:34.025Z,81.94
2023-02-17T03:22:10.426Z,82.33
2023-02-17T03:24:38.742Z,82.83
2023-02-17T03:27:08.217Z,83.32
2023-02-17T03:29:36.282Z,83.67
2023-02-17T03:32:05.340Z,83.97
2023-02-17T03:34:34.094Z,84.19
2023-02-17T03:37:02.121Z,84.52
2023-02-17T03:39:30.383Z,84.75
2023-02-17T03:41:58.622Z,84.92
2023-02-17T03:44:26.582Z,85.09
2023-02-17T03:46:54.718Z,85.17
2023-02-17T03:49:22.760Z,85.27
2023-02-17T03:51:50.670Z,85.50
2023-02-17T03:54:18.685Z,85.60
2023-02-17T03:56:46.723Z,85.73
2023-02-17T03:59:14.703Z,85.83
2023-02-17T04:02:58.692Z,86.03
2023-02-17T04:05:27.174Z,86.05
2023-02-17T04:07:55.813Z,86.21
2023-02-17T04:10:23.884Z,86.37
2023-02-17T04:12:52.115Z,86.50
2023-02-17T04:15:20.327Z,86.59
2023-02-17T04:17:49.103Z,86.68
2023-02-17T04:20:17.270Z,86.78
2023-02-17T04:22:46.377Z,86.90
2023-02-17T04:25:14.414Z,87.03
2023-02-17T04:27:42.313Z,87.13
2023-02-17T04:34:38.559Z,87.19
2023-02-17T04:37:07.017Z,87.34
2023-02-17T04:39:34.946Z,87.47
2023-02-17T04:42:03.030Z,87.58
2023-02-17T04:44:31.956Z,87.60
2023-02-17T04:46:59.972Z,87.54
2023-02-17T04:49:28.022Z,87.64
2023-02-17T04:51:56.786Z,87.76
2023-02-17T04:54:24.861Z,87.80
2023-02-17T04:56:52.883Z,87.87
2023-02-17T04:59:20.812Z,87.96
2023-02-17T05:01:48.801Z,88.00
2023-02-17T05:04:16.854Z,88.09
2023-02-17T05:06:44.813Z,88.15
2023-02-17T05:09:12.791Z,88.22
2023-02-17T05:11:40.804Z,88.24
2023-02-17T05:14:09.473Z,88.25
2023-02-17T05:16:37.601Z,88.26
2023-02-17T05:19:05.912Z,88.30
2023-02-17T05:21:34.232Z,88.35
2023-02-17T05:24:02.529Z,88.39
2023-02-17T05:26:31.051Z,88.44
2023-02-17T05:28:59.022Z,88.46
2023-02-17T05:31:27.065Z,88.48
2023-02-17T05:33:55.913Z,88.46
2023-02-17T05:36:23.968Z,88.46
2023-02-17T05:38:52.133Z,88.44
2023-02-17T05:41:20.470Z,88.49
2023-02-17T05:43:48.591Z,88.52
2023-02-17T05:46:16.755Z,88.52
2023-02-17T05:48:46.018Z,88.52
2023-02-17T05:51:17.222Z,88.51
2023-02-17T05:53:45.498Z,88.47
2023-02-17T05:56:13.607Z,88.46
2023-02-17T05:58:41.654Z,88.43
2023-02-17T06:01:11.180Z,88.38
2023-02-17T06:03:39.822Z,88.34
2023-02-17T06:06:09.735Z,88.29
2023-02-17T06:08:37.869Z,88.26
2023-02-17T06:11:06.193Z,88.23
2023-02-17T06:13:34.288Z,88.20
2023-02-17T06:16:02.919Z,88.18
2023-02-17T06:18:31.599Z,88.13
2023-02-17T06:20:59.774Z,88.06
2023-02-17T06:23:28.358Z,88.00
2023-02-17T06:25:56.568Z,87.95
2023-02-17T06:28:24.711Z,87.89
2023-02-17T06:30:52.752Z,87.76
2023-02-17T06:33:20.735Z,87.66
2023-02-17T06:35:52.392Z,87.61
2023-02-17T06:38:20.740Z,87.51
2023-02-17T06:40:48.895Z,87.42
2023-02-17T06:43:16.885Z,87.32
2023-02-17T06:45:44.908Z,87.23
2023-02-17T06:48:13.132Z,87.15
2023-02-17T06:50:41.383Z,87.07
2023-02-17T06:53:09.448Z,86.98
2023-02-17T06:55:39.149Z,86.94
2023-02-17T06:58:08.390Z,86.87
2023-02-17T07:00:36.592Z,86.83
2023-02-17T07:03:04.771Z,86.72
2023-02-17T07:05:37.616Z,86.60
2023-02-17T07:08:07.048Z,86.51
2023-02-17T07:10:35.128Z,86.34
2023-02-17T07:13:03.524Z,86.34
2023-02-17T07:15:31.582Z,86.23
2023-02-17T07:18:01.725Z,85.91
2023-02-17T07:20:32.163Z,85.76
2023-02-17T07:23:01.366Z,85.65
2023-02-17T07:25:29.695Z,85.50
2023-02-17T07:27:57.811Z,85.33
2023-02-17T07:30:25.960Z,85.22
2023-02-17T07:32:54.097Z,85.00
2023-02-17T07:35:22.440Z,84.90
2023-02-17T07:37:51.911Z,84.73
2023-02-17T07:40:20.161Z,84.59
2023-02-17T07:42:48.212Z,84.65
2023-02-17T07:45:16.276Z,84.45
2023-02-17T07:47:44.655Z,84.05
2023-02-17T11:04:49.301Z,85.70
2023-02-17T11:07:23.832Z,86.09
2023-02-17T11:09:59.492Z,86.17
2023-02-17T11:12:40.397Z,86.37
2023-02-17T11:15:24.426Z,86.53
2023-02-17T11:17:53.911Z,86.91
2023-02-17T11:20:22.716Z,87.03
2023-02-17T11:23:05.246Z,87.18
2023-02-17T11:25:35.567Z,87.20
2023-02-17T11:28:13.370Z,87.20
2023-02-17T11:30:51.183Z,87.13
2023-02-17T11:33:39.731Z,87.12
2023-02-17T11:36:13.676Z,87.07
2023-02-17T11:38:44.957Z,86.98
2023-02-17T11:41:13.115Z,86.99
2023-02-17T11:43:52.909Z,86.98
2023-02-17T11:46:32.157Z,86.81
2023-02-17T11:49:24.140Z,86.75
2023-02-17T11:51:58.472Z,86.64
2023-02-17T11:54:36.720Z,86.64
2023-02-17T11:57:32.633Z,86.72
2023-02-17T12:00:22.907Z,86.66
2023-02-17T12:03:18.791Z,86.63
2023-02-17T12:05:52.949Z,86.58
2023-02-17T12:08:48.750Z,86.58
2023-02-17T12:11:22.932Z,86.61
2023-02-17T12:13:59.952Z,86.61
2023-02-17T12:16:43.748Z,86.57
2023-02-17T12:19:19.524Z,86.58
2023-02-17T12:22:12.804Z,86.62
2023-02-17T12:24:56.254Z,86.60
2023-02-17T12:27:55.209Z,86.67
2023-02-17T12:30:49.660Z,86.74
2023-02-17T12:33:49.100Z,86.76
2023-02-17T12:36:19.597Z,86.83
2023-02-17T12:38:57.378Z,86.93
2023-02-17T12:41:32.086Z,86.96
2023-02-17T12:44:06.972Z,86.97
2023-02-17T12:46:41.261Z,87.01
2023-02-17T12:49:36.081Z,86.99
2023-02-17T12:52:27.150Z,86.97
2023-02-17T12:55:00.836Z,87.02
2023-02-17T12:57:49.019Z,87.05
2023-02-17T13:00:30.327Z,87.05
2023-02-17T13:03:03.574Z,87.11
2023-02-17T13:05:42.212Z,87.19
2023-02-17T13:08:14.741Z,87.25
2023-02-17T13:10:43.137Z,87.28
2023-02-17T13:13:26.189Z,87.41
2023-02-17T13:16:13.433Z,87.50
2023-02-17T13:18:48.931Z,87.67
2023-02-17T13:21:22.926Z,87.82
2023-02-17T13:24:03.091Z,87.92
2023-02-17T13:26:33.461Z,87.93
2023-02-17T13:29:26.302Z,88.03
2023-02-17T13:32:00.230Z,88.18
2023-02-17T13:34:43.757Z,88.15
2023-02-17T13:37:32.302Z,88.04
2023-02-17T13:40:23.117Z,88.11
2023-02-17T13:42:56.707Z,88.24
2023-02-17T13:45:24.659Z,88.33
2023-02-17T13:47:56.705Z,88.32
2023-02-17T13:50:32.875Z,88.36
2023-02-17T13:53:22.947Z,88.40
2023-02-17T13:55:51.996Z,88.44
2023-02-17T13:58:25.357Z,88.48
2023-02-17T14:00:54.730Z,88.57
2023-02-17T14:03:30.856Z,88.56
2023-02-17T14:06:01.288Z,88.56
2023-02-17T14:08:32.207Z,88.61
2023-02-17T14:11:13.643Z,88.68
2023-02-17T14:13:45.658Z,88.71
2023-02-17T14:16:35.486Z,88.76
2023-02-17T14:19:14.475Z,88.80
2023-02-17T14:21:45.565Z,88.83
2023-02-17T14:24:33.796Z,88.86
2023-02-17T14:27:08.958Z,88.91
2023-02-17T14:29:48.538Z,88.97
2023-02-17T14:32:38.294Z,89.01
2023-02-17T14:35:12.554Z,88.98
2023-02-17T14:37:42.726Z,89.07
2023-02-17T14:40:31.176Z,89.10
2023-02-17T14:42:59.318Z,89.11
2023-02-17T14:45:27.544Z,89.15
2023-02-17T14:47:57.781Z,89.22
2023-02-17T14:50:26.007Z,89.22
2023-02-17T14:52:54.265Z,89.25
2023-02-17T14:55:54.147Z,89.27
2023-02-17T14:58:25.201Z,89.25
2023-02-17T15:00:53.312Z,89.28
2023-02-17T15:03:21.443Z,89.30
2023-02-17T15:05:50.125Z,89.35
2023-02-17T15:08:29.774Z,89.40
2023-02-17T15:10:57.984Z,89.41
2023-02-17T15:13:26.584Z,89.44
2023-02-17T15:15:54.987Z,89.51
2023-02-17T15:18:23.939Z,89.55
2023-02-17T15:20:52.381Z,89.61
2023-02-17T15:23:23.816Z,89.60
2023-02-17T15:25:53.981Z,89.69
2023-02-17T15:32:30.362Z,89.72
2023-02-17T15:35:00.348Z,89.74
2023-02-17T15:37:29.508Z,89.85
2023-02-17T15:39:58.027Z,90.00
2023-02-17T15:42:26.534Z,90.11
2023-02-17T15:44:54.525Z,90.17
2023-02-17T15:47:22.591Z,90.22
2023-02-17T15:49:50.725Z,90.27
2023-02-17T15:52:18.729Z,90.32
2023-02-17T15:54:48.328Z,90.38
2023-02-17T15:57:23.548Z,90.37
2023-02-17T15:59:55.571Z,90.43
2023-02-17T16:02:25.824Z,90.48
2023-02-17T16:04:57.433Z,90.53
2023-02-17T16:07:25.342Z,90.60
2023-02-17T16:09:53.558Z,90.63
2023-02-17T16:12:27.056Z,90.65
2023-02-17T16:14:56.869Z,90.69
2023-02-17T16:17:26.125Z,90.69
2023-02-17T16:19:54.321Z,90.72
2023-02-17T16:22:22.896Z,90.78
2023-02-17T16:24:50.952Z,90.80
2023-02-17T16:27:19.850Z,90.83
2023-02-17T16:29:48.023Z,90.90
2023-02-17T16:32:16.333Z,90.89
2023-02-17T16:34:44.810Z,90.91
2023-02-17T16:37:16.099Z,90.92
2023-02-17T16:39:45.793Z,90.96
2023-02-17T16:42:15.499Z,91.03
2023-02-17T16:44:44.458Z,91.06
2023-02-17T16:47:20.181Z,91.09
2023-02-17T16:49:48.655Z,91.09
2023-02-17T16:52:23.914Z,91.10
2023-02-17T16:54:52.321Z,91.11
2023-02-17T16:57:21.974Z,91.15
2023-02-17T16:59:52.504Z,91.15
2023-02-17T17:02:21.818Z,91.06
2023-02-17T17:04:50.035Z,91.05
2023-02-17T17:07:18.103Z,91.05
2023-02-17T17:10:06.894Z,91.09
2023-02-17T17:12:34.940Z,91.10
2023-02-17T17:15:03.913Z,91.13
2023-02-17T17:17:40.000Z,91.16
2023-02-17T17:20:13.451Z,91.21
2023-02-17T17:22:41.435Z,91.22
2023-02-17T17:25:10.287Z,91.23
2023-02-17T17:27:38.250Z,91.26
2023-02-17T17:30:09.197Z,91.25
2023-02-17T17:32:37.261Z,91.28
2023-02-17T17:35:05.875Z,91.29
2023-02-17T17:37:33.714Z,91.30
2023-02-17T17:40:01.751Z,91.31
2023-02-17T17:42:29.593Z,91.33
2023-02-17T17:44:57.511Z,91.34
2023-02-17T17:47:30.159Z,91.32
2023-02-17T17:49:59.445Z,91.30
2023-02-17T17:52:40.152Z,91.31
2023-02-17T17:55:08.409Z,91.26
2023-02-17T17:57:36.643Z,91.27
2023-02-17T18:00:11.609Z,91.30
2023-02-17T18:02:43.075Z,91.28
2023-02-17T18:05:12.996Z,91.28
2023-02-17T18:07:43.135Z,91.29
2023-02-17T18:10:13.416Z,91.28
2023-02-17T18:12:44.062Z,91.26
2023-02-17T18:15:12.277Z,91.26
2023-02-17T18:17:42.140Z,91.27
2023-02-17T18:20:12.064Z,91.33
2023-02-17T18:22:40.454Z,91.34
2023-02-17T18:25:09.384Z,91.39
2023-02-17T18:27:43.208Z,91.45
2023-02-17T18:30:14.859Z,91.47
2023-02-17T18:32:44.221Z,91.52
2023-02-17T18:35:13.243Z,91.55
2023-02-17T18:37:41.548Z,91.54
2023-02-17T18:40:14.866Z,91.59
2023-02-17T18:42:45.524Z,91.64
2023-02-17T18:45:15.646Z,91.66
2023-02-17T18:47:44.171Z,91.69
2023-02-17T18:50:13.013Z,91.73
2023-02-17T18:52:42.673Z,91.77
2023-02-17T18:55:11.515Z,91.81
2023-02-17T19:04:38.051Z,91.87
2023-02-17T19:07:07.575Z,91.85
2023-02-17T19:09:45.100Z,91.89
2023-02-17T19:12:16.288Z,91.94
2023-02-17T19:14:44.438Z,92.02
2023-02-17T19:17:12.548Z,92.05
2023-02-17T19:19:41.424Z,92.10
2023-02-17T19:22:10.211Z,92.13
2023-02-17T19:24:40.660Z,92.18
2023-02-17T19:27:08.889Z,92.14
2023-02-17T19:29:37.039Z,92.17
2023-02-17T19:32:05.401Z,92.19
2023-02-17T19:34:35.517Z,92.26
2023-02-17T19:37:03.468Z,92.30
2023-02-17T19:39:34.269Z,92.29
2023-02-17T19:42:15.795Z,92.30
2023-02-17T19:44:43.838Z,92.33
2023-02-17T19:47:11.839Z,92.37
2023-02-17T19:49:39.883Z,92.46
2023-02-17T19:52:08.447Z,92.50
2023-02-17T19:54:37.482Z,92.51
2023-02-17T19:57:05.732Z,92.56
2023-02-17T19:59:33.861Z,92.57
2023-02-17T20:02:01.952Z,92.62
2023-02-17T20:04:30.192Z,92.65
2023-02-17T20:06:58.631Z,92.67
2023-02-17T20:09:26.815Z,92.71
2023-02-17T20:11:54.896Z,92.72
2023-02-17T20:14:23.428Z,92.77
2023-02-17T20:16:53.456Z,92.80
2023-02-17T20:19:21.843Z,92.83
2023-02-17T20:21:50.057Z,92.79
2023-02-17T20:24:18.094Z,92.77
2023-02-17T20:26:47.537Z,92.75
2023-02-17T20:29:15.423Z,92.72
2023-02-17T20:31:43.748Z,92.65
2023-02-17T20:34:26.289Z,92.55
2023-02-17T20:36:54.855Z,92.43
2023-02-17T20:39:23.783Z,92.24
2023-02-17T20:41:55.038Z,91.85
2023-02-17T20:44:27.699Z,91.61
2023-02-17T20:46:57.330Z,91.40
2023-02-17T20:49:25.718Z,91.30
2023-02-17T20:51:53.781Z,91.09
2023-02-17T20:54:24.744Z,90.95
2023-02-17T20:56:53.102Z,90.74
2023-02-17T20:59:21.218Z,90.76
2023-02-17T21:01:49.976Z,90.50
2023-02-17T21:04:18.790Z,90.45
2023-02-17T21:06:47.542Z,90.45
2023-02-17T21:09:18.412Z,90.51
2023-02-17T21:11:46.925Z,90.32
2023-02-17T21:14:15.122Z,90.26
2023-02-17T21:16:43.797Z,90.36
2023-02-17T21:19:11.666Z,90.39
2023-02-17T21:21:40.985Z,90.46
2023-02-17T21:24:09.291Z,90.53
2023-02-17T21:26:37.565Z,90.64
2023-02-17T21:29:05.517Z,90.74
2023-02-17T21:31:33.912Z,90.92
2023-02-17T21:34:02.036Z,91.02
2023-02-17T21:36:30.114Z,91.11
2023-02-17T21:38:59.071Z,91.18
2023-02-17T21:41:28.958Z,91.42
2023-02-17T21:44:17.440Z,91.67
2023-02-17T21:46:46.471Z,90.91
2023-02-17T21:49:14.712Z,90.08
2023-02-17T21:51:43.075Z,89.86
2023-02-17T21:54:11.863Z,89.35
2023-02-17T21:56:39.929Z,89.34
2023-02-17T21:59:08.259Z,89.66
2023-02-17T22:01:37.087Z,89.84
2023-02-17T22:04:06.086Z,89.72
2023-02-17T22:06:37.907Z,88.96
2023-02-17T22:09:08.017Z,88.29
2023-02-17T22:11:39.641Z,87.93
2023-02-17T22:14:12.347Z,87.21
2023-02-17T22:16:40.513Z,85.97
2023-02-17T22:19:12.590Z,85.09
2023-02-17T22:21:40.496Z,85.55
2023-02-17T22:24:09.219Z,85.72
2023-02-17T22:26:37.167Z,85.72
2023-02-17T22:29:05.810Z,85.98
2023-02-17T22:31:34.482Z,86.32
2023-02-17T22:34:06.890Z,86.41
2023-02-17T22:36:36.592Z,86.45
2023-02-17T22:39:06.906Z,86.54
2023-02-17T22:41:36.252Z,86.31
2023-02-17T22:44:04.398Z,85.86
2023-02-17T22:46:32.405Z,84.86
2023-02-17T22:49:00.867Z,84.30
2023-02-17T22:51:32.265Z,83.46
2023-02-17T22:54:01.655Z,82.41
2023-02-17T22:56:30.226Z,81.14
2023-02-17T22:59:01.007Z,81.11
2023-02-17T23:01:31.353Z,80.39
2023-02-17T23:04:00.018Z,79.59
2023-02-17T23:06:37.876Z,79.48
2023-02-17T23:09:08.601Z,79.71
2023-02-17T23:11:53.653Z,79.72
2023-02-17T23:14:33.096Z,80.19
2023-02-17T23:17:10.426Z,80.29
2023-02-17T23:19:39.707Z,80.67
2023-02-17T23:22:11.479Z,80.67
2023-02-17T23:24:39.286Z,81.12
2023-02-17T23:27:07.203Z,81.28
2023-02-17T23:29:35.215Z,79.79
2023-02-17T23:32:03.056Z,77.38
2023-02-17T23:34:31.169Z,76.63
2023-02-17T23:36:59.729Z,76.71
2023-02-17T23:39:28.156Z,75.03
2023-02-17T23:41:56.030Z,74.97
2023-02-17T23:44:24.138Z,73.50
2023-02-17T23:46:51.949Z,71.78
2023-02-17T23:49:19.792Z,71.94
2023-02-17T23:51:47.651Z,72.16
2023-02-17T23:54:16.020Z,72.23
2023-02-17T23:56:43.945Z,72.24
2023-02-17T23:59:11.954Z,72.38
